Time;durP1;ratioP1;P1;durP2;ratioP2;P2;SDS_P1;SDS_P2;PMS_P1;PMS_P2;Temp;Humidity;BMP_temperature;BMP_pressure;BME280_temperature;BME280_humidity;BME280_pressure;Samples;Min_cycle;Max_cycle;Signal;HPM_P1;HPM_P2
2022/06/26 00:01:54;;;;;;;;;3.00;3.00;;;;;18.86;100.00;101011.47;5053476;28;45461;-78
2022/06/26 00:04:19;;;;;;;;;2.00;2.00;;;;;18.85;100.00;101020.38;5054882;28;69841;-77
2022/06/26 00:06:45;;;;;;;;;1.00;1.00;;;;;18.81;100.00;101016.91;5073860;28;45406;-77
2022/06/26 00:09:10;;;;;;;;;1.67;1.67;;;;;18.82;100.00;101026.69;5067680;28;45578;-76
2022/06/26 00:11:35;;;;;;;;;3.33;2.00;;;;;18.82;100.00;101023.13;5076608;28;62136;-76
2022/06/26 00:14:01;;;;;;;;;3.00;3.00;;;;;18.81;100.00;101024.94;5072062;28;46535;-79
2022/06/26 00:16:26;;;;;;;;;3.33;3.00;;;;;18.81;100.00;101019.59;5070344;28;45430;-79
2022/06/26 00:18:51;;;;;;;;;5.00;2.00;;;;;18.83;100.00;101027.56;5068511;28;47825;-77
2022/06/26 00:21:17;;;;;;;;;1.33;1.33;;;;;18.82;100.00;101029.38;5043133;28;45225;-76
2022/06/26 00:23:42;;;;;;;;;1.33;1.33;;;;;18.83;100.00;101027.56;5068121;28;46882;-75
2022/06/26 00:26:08;;;;;;;;;1.67;1.67;;;;;18.83;100.00;101020.44;5070459;28;45506;-78
2022/06/26 00:28:33;;;;;;;;;2.00;1.67;;;;;18.82;100.00;101026.69;5057754;28;45490;-76
2022/06/26 00:31:00;;;;;;;;;3.33;2.67;;;;;18.81;100.00;101024.94;5071479;28;45731;-77
2022/06/26 00:33:25;;;;;;;;;2.00;2.00;;;;;18.80;100.00;101015.16;5063596;28;47082;-77
2022/06/26 00:35:51;;;;;;;;;1.67;1.00;;;;;18.80;100.00;101016.91;5069746;28;64067;-77
2022/06/26 00:38:16;;;;;;;;;2.67;2.00;;;;;18.78;100.00;101018.75;5067802;28;57397;-78
2022/06/26 00:40:42;;;;;;;;;3.33;3.33;;;;;18.74;100.00;101025.94;5071660;28;50491;-80
2022/06/26 00:43:08;;;;;;;;;2.00;2.00;;;;;18.74;100.00;101015.25;5073881;28;46440;-76
2022/06/26 00:45:33;;;;;;;;;3.67;2.00;;;;;18.74;100.00;101009.03;5078417;28;45509;-77
2022/06/26 00:47:59;;;;;;;;;2.00;2.00;;;;;18.72;100.00;101017.09;5067712;28;46005;-76
2022/06/26 00:50:25;;;;;;;;;4.00;3.00;;;;;18.73;100.00;101009.94;5058167;28;45568;-78
2022/06/26 00:52:51;;;;;;;;;3.67;3.00;;;;;18.70;100.00;101016.25;5070605;28;46783;-76
2022/06/26 00:55:16;;;;;;;;;2.00;2.00;;;;;18.66;100.00;101005.59;5043511;28;45396;-76
2022/06/26 00:57:42;;;;;;;;;2.00;2.00;;;;;18.65;100.00;101019.88;5061580;28;60265;-76
2022/06/26 01:00:09;;;;;;;;;5.00;3.67;;;;;18.61;100.00;101024.41;5075557;28;45748;-77
2022/06/26 01:02:35;;;;;;;;;2.00;2.00;;;;;18.61;100.00;101037.78;5076269;28;46622;-76
2022/06/26 01:05:00;;;;;;;;;5.00;3.67;;;;;18.56;100.00;101037.84;5077081;28;45483;-76
2022/06/26 01:07:25;;;;;;;;;4.00;2.33;;;;;18.57;100.00;101036.94;5074877;28;47338;-76
2022/06/26 01:09:51;;;;;;;;;3.67;2.00;;;;;18.55;100.00;101029.88;5039054;28;53086;-78
2022/06/26 01:12:16;;;;;;;;;3.33;3.33;;;;;18.54;100.00;101028.13;5046556;28;65293;-77
2022/06/26 01:14:42;;;;;;;;;3.67;3.00;;;;;18.52;100.00;101027.25;5057330;28;70242;-77
2022/06/26 01:17:07;;;;;;;;;4.00;3.00;;;;;18.50;100.00;101042.44;5072134;28;50846;-76
2022/06/26 01:19:33;;;;;;;;;6.00;3.00;;;;;18.49;100.00;101046.91;5039876;28;57352;-76
2022/06/26 01:21:58;;;;;;;;;4.00;4.00;;;;;18.48;100.00;101045.16;5052670;28;64143;-78
2022/06/26 01:24:23;;;;;;;;;6.00;3.00;;;;;18.45;100.00;101045.19;5077462;28;59554;-77
2022/06/26 01:26:49;;;;;;;;;2.33;2.33;;;;;18.40;100.00;101040.84;5071222;28;60555;-80
2022/06/26 01:29:14;;;;;;;;;4.33;2.00;;;;;18.39;100.00;101033.75;5077847;28;45365;-78
2022/06/26 01:31:40;;;;;;;;;5.00;2.00;;;;;18.35;100.00;101040.91;5072624;28;45872;-76
2022/06/26 01:34:07;;;;;;;;;4.00;3.00;;;;;18.35;100.00;101045.38;5074983;28;45414;-80
2022/06/26 01:36:32;;;;;;;;;2.00;2.00;;;;;18.31;100.00;101045.44;5045901;28;45573;-76
2022/06/26 01:38:58;;;;;;;;;2.33;2.33;;;;;18.28;100.00;101047.28;5071561;28;45216;-76
2022/06/26 01:41:23;;;;;;;;;6.00;2.00;;;;;18.28;100.00;101050.84;5075743;28;47426;-77
2022/06/26 01:43:49;;;;;;;;;2.00;2.00;;;;;18.27;100.00;101061.56;5077816;28;45441;-76
2022/06/26 01:46:14;;;;;;;;;4.33;2.67;;;;;18.25;100.00;101058.91;5052718;28;45347;-78
2022/06/26 01:48:40;;;;;;;;;3.00;3.00;;;;;18.25;100.00;101056.22;5063199;28;45554;-76
2022/06/26 01:51:06;;;;;;;;;2.33;2.33;;;;;18.23;100.00;101057.19;5076431;28;47724;-79
2022/06/26 01:53:32;;;;;;;;;3.00;3.00;;;;;18.21;100.00;101057.19;5076550;28;45423;-76
2022/06/26 01:55:57;;;;;;;;;4.00;2.67;;;;;18.21;100.00;101061.66;5074535;28;45388;-79
2022/06/26 01:58:23;;;;;;;;;3.67;2.00;;;;;18.20;100.00;101063.44;5063006;28;45534;-76
2022/06/26 02:00:50;;;;;;;;;3.67;2.00;;;;;18.18;100.00;101065.28;5065028;28;46375;-80
2022/06/26 02:03:16;;;;;;;;;4.33;3.00;;;;;18.18;100.00;101062.59;5070773;28;45225;-78
2022/06/26 02:05:42;;;;;;;;;2.33;2.33;;;;;18.16;100.00;101059.06;5070802;28;45260;-76
2022/06/26 02:08:08;;;;;;;;;4.00;3.00;;;;;18.16;100.00;101060.84;5069720;28;45378;-77
2022/06/26 02:13:37;;;;;;;;;4.00;2.67;;;;;18.14;100.00;101052.88;5069971;28;45573;-76
2022/06/26 02:16:03;;;;;;;;;4.67;3.00;;;;;18.14;100.00;101058.22;5073759;28;45510;-76
2022/06/26 02:18:29;;;;;;;;;5.00;3.00;;;;;18.11;100.00;101068.97;5076439;28;45621;-76
2022/06/26 02:20:55;;;;;;;;;4.67;3.00;;;;;18.11;100.00;101065.38;5063578;28;66662;-77
2022/06/26 02:23:20;;;;;;;;;2.33;2.33;;;;;18.08;100.00;101068.13;5076206;28;45393;-75
2022/06/26 02:25:46;;;;;;;;;2.00;2.00;;;;;18.08;100.00;101071.69;5066358;28;45332;-78
2022/06/26 02:28:12;;;;;;;;;3.00;3.00;;;;;18.10;100.00;101082.31;5074775;28;45420;-80
2022/06/26 02:30:38;;;;;;;;;3.00;3.00;;;;;18.09;100.00;101081.44;5038962;28;46441;-79
2022/06/26 02:33:03;;;;;;;;;2.00;2.00;;;;;18.07;100.00;101069.91;5073352;28;67705;-78
2022/06/26 02:35:30;;;;;;;;;3.00;3.00;;;;;18.09;100.00;101084.13;5072970;28;45463;-78
2022/06/26 02:37:55;;;;;;;;;4.00;3.00;;;;;18.12;100.00;101080.53;5071837;28;45400;-76
2022/06/26 02:40:22;;;;;;;;;3.00;3.00;;;;;18.12;100.00;101068.06;5062683;28;45369;-77
2022/06/26 02:42:48;;;;;;;;;5.00;3.33;;;;;18.11;100.00;101063.63;5066633;28;45344;-76
2022/06/26 02:45:13;;;;;;;;;5.00;3.00;;;;;18.12;100.00;101065.38;5070592;28;45486;-76
2022/06/26 02:47:39;;;;;;;;;2.00;2.00;;;;;18.14;100.00;101060.00;5063373;28;45399;-76
2022/06/26 02:50:06;;;;;;;;;4.00;3.00;;;;;18.16;100.00;101060.84;5059734;28;52370;-77
2022/06/26 02:52:31;;;;;;;;;4.33;3.00;;;;;18.17;100.00;101062.63;5068990;28;45372;-77
2022/06/26 02:54:57;;;;;;;;;5.67;4.00;;;;;18.19;100.00;101069.72;5054444;28;45448;-77
2022/06/26 02:57:22;;;;;;;;;6.33;2.00;;;;;18.20;100.00;101066.13;5067214;28;55274;-78
2022/06/26 02:59:48;;;;;;;;;4.00;3.00;;;;;18.21;100.00;101067.00;5069285;28;46693;-77
2022/06/26 03:02:13;;;;;;;;;2.00;2.00;;;;;18.24;100.00;101078.53;5067601;28;60319;-77
2022/06/26 03:04:38;;;;;;;;;3.00;3.00;;;;;18.22;100.00;101075.00;5062751;28;58068;-79
2022/06/26 03:07:04;;;;;;;;;6.33;3.00;;;;;18.24;100.00;101083.00;5052553;28;45231;-77
2022/06/26 03:09:29;;;;;;;;;4.00;3.00;;;;;18.23;100.00;101078.56;5068533;28;63940;-79
2022/06/26 03:11:55;;;;;;;;;5.67;3.00;;;;;18.23;100.00;101081.25;5062790;28;45323;-77
2022/06/26 03:14:20;;;;;;;;;2.00;2.00;;;;;18.22;100.00;101076.81;5074719;28;45693;-78
2022/06/26 03:16:46;;;;;;;;;3.00;2.00;;;;;18.23;100.00;101090.13;5063876;28;60088;-77
2022/06/26 03:19:11;;;;;;;;;4.00;3.00;;;;;18.25;100.00;101082.97;5064759;28;45870;-79
2022/06/26 03:21:37;;;;;;;;;3.00;2.00;;;;;18.25;100.00;101084.75;5064136;28;48902;-77
2022/06/26 03:24:02;;;;;;;;;3.33;3.33;;;;;18.27;100.00;101085.63;5065249;28;45422;-76
2022/06/26 03:26:33;;;;;;;;;4.67;3.00;;;;;18.27;100.00;101082.97;5062619;28;45589;-76
2022/06/26 03:28:59;;;;;;;;;6.00;3.00;;;;;18.27;100.00;101093.66;5074700;28;46871;-79
2022/06/26 03:31:25;;;;;;;;;2.00;2.00;;;;;18.24;100.00;101094.56;5063855;28;45257;-76
2022/06/26 03:33:50;;;;;;;;;3.00;3.00;;;;;18.25;100.00;101098.13;5057467;28;45231;-76
2022/06/26 03:36:16;;;;;;;;;6.67;2.67;;;;;18.27;100.00;101102.56;5069398;28;45510;-77
2022/06/26 03:38:42;;;;;;;;;2.00;2.00;;;;;18.25;100.00;101096.31;5075279;28;46510;-77
2022/06/26 03:41:07;;;;;;;;;6.00;4.00;;;;;18.27;100.00;101104.34;5067254;28;45400;-79
2022/06/26 03:43:32;;;;;;;;;2.00;2.00;;;;;18.25;100.00;101100.78;5076720;28;45457;-76
2022/06/26 03:45:58;;;;;;;;;2.00;2.00;;;;;18.25;100.00;101100.78;5076253;28;63287;-77
2022/06/26 03:48:23;;;;;;;;;4.00;2.00;;;;;18.23;100.00;101095.47;5067138;28;70765;-76
2022/06/26 03:50:50;;;;;;;;;5.00;3.67;;;;;18.22;100.00;101092.84;5071027;28;45450;-77
2022/06/26 03:53:16;;;;;;;;;6.00;3.00;;;;;18.20;100.00;101097.31;5078097;28;45409;-77
2022/06/26 03:55:41;;;;;;;;;2.00;2.00;;;;;18.20;100.00;101091.97;5069951;28;45456;-76
2022/06/26 03:58:06;;;;;;;;;5.00;4.00;;;;;18.20;100.00;101100.88;5076480;28;69283;-76
2022/06/26 04:00:32;;;;;;;;;7.67;3.33;;;;;18.19;100.00;101091.09;5073281;28;66013;-79
2022/06/26 04:02:57;;;;;;;;;2.67;2.33;;;;;18.19;100.00;101099.09;5073719;28;62556;-79
2022/06/26 04:05:23;;;;;;;;;4.67;3.00;;;;;18.18;100.00;101100.03;5069850;28;52961;-78
2022/06/26 04:07:48;;;;;;;;;6.00;2.00;;;;;18.20;100.00;101103.53;5071871;28;46617;-76
2022/06/26 04:10:13;;;;;;;;;3.33;2.00;;;;;18.20;100.00;101110.69;5069800;28;66315;-80
2022/06/26 04:12:39;;;;;;;;;3.67;3.00;;;;;18.17;100.00;101113.41;5074733;28;59062;-81
2022/06/26 04:15:05;;;;;;;;;3.00;3.00;;;;;18.13;100.00;101112.56;5066281;28;45332;-77
2022/06/26 04:17:30;;;;;;;;;6.00;3.00;;;;;18.13;100.00;101120.59;5077386;28;45237;-79
2022/06/26 04:19:56;;;;;;;;;3.33;3.33;;;;;18.12;100.00;101123.28;5073800;28;49418;-77
2022/06/26 04:22:22;;;;;;;;;2.00;2.00;;;;;18.13;100.00;101135.75;5071717;28;45796;-77
2022/06/26 04:24:47;;;;;;;;;3.00;3.00;;;;;18.12;100.00;101140.22;5061063;28;45554;-78
2022/06/26 04:27:13;;;;;;;;;9.33;4.00;;;;;18.10;100.00;101133.97;5060863;28;46558;-79
2022/06/26 04:29:38;;;;;;;;;5.33;2.33;;;;;18.08;100.00;101135.81;5073570;28;66812;-76
2022/06/26 04:32:04;;;;;;;;;2.33;2.33;;;;;18.06;100.00;101146.53;5067128;28;45501;-78
2022/06/26 04:34:29;;;;;;;;;4.00;2.00;;;;;18.04;100.00;101145.66;5072480;28;45649;-79
2022/06/26 04:36:54;;;;;;;;;1.67;1.00;;;;;18.04;100.00;101142.97;5076980;28;54924;-76
2022/06/26 04:39:20;;;;;;;;;6.67;2.00;;;;;18.00;100.00;101146.63;5076666;28;64803;-76
2022/06/26 04:41:47;;;;;;;;;2.00;2.00;;;;;18.00;100.00;101143.03;5077092;28;45391;-77
2022/06/26 04:44:12;;;;;;;;;4.33;3.00;;;;;18.01;100.00;101143.03;5066042;28;45427;-78
2022/06/26 04:46:39;;;;;;;;;3.00;2.00;;;;;17.98;100.00;101140.41;5073763;28;45502;-76
2022/06/26 04:49:05;;;;;;;;;5.00;2.00;;;;;17.96;100.00;101150.25;5072839;28;45290;-76
2022/06/26 04:51:31;;;;;;;;;3.67;3.33;;;;;17.96;100.00;101144.00;5073554;28;45677;-77
2022/06/26 04:53:56;;;;;;;;;6.00;3.00;;;;;17.97;100.00;101165.34;5067171;28;45197;-77
2022/06/26 04:56:22;;;;;;;;;6.67;3.00;;;;;17.98;100.00;101172.47;5076533;28;45955;-76
2022/06/26 04:58:48;;;;;;;;;3.00;2.00;;;;;18.02;100.00;101167.97;5076053;28;45470;-75
2022/06/26 05:01:14;;;;;;;;;3.00;2.00;;;;;18.03;100.00;101161.72;5076511;28;45517;-76
2022/06/26 05:03:39;;;;;;;;;5.67;3.00;;;;;18.09;100.00;101179.44;5049660;28;45638;-76
2022/06/26 05:06:05;;;;;;;;;5.00;3.00;;;;;18.14;100.00;101167.78;5058801;28;45483;-77
2022/06/26 05:08:30;;;;;;;;;5.00;3.00;;;;;18.18;100.00;101161.50;5070747;28;45333;-76
2022/06/26 05:10:56;;;;;;;;;3.00;3.00;;;;;18.23;100.00;101172.13;5075022;28;45311;-76
2022/06/26 05:13:21;;;;;;;;;4.00;2.00;;;;;18.27;100.00;101169.38;5070628;28;59461;-76
2022/06/26 05:15:49;;;;;;;;;3.00;3.00;;;;;18.30;100.00;101176.44;5075855;28;66634;-76
2022/06/26 05:18:15;;;;;;;;;3.00;3.00;;;;;18.35;100.00;101181.72;5072149;28;45482;-75
2022/06/26 05:20:41;;;;;;;;;4.67;2.00;;;;;18.38;100.00;101184.38;5073363;28;52482;-80
2022/06/26 05:23:07;;;;;;;;;3.33;3.00;;;;;18.41;100.00;101189.66;5072054;28;45414;-79
2022/06/26 05:25:33;;;;;;;;;4.00;2.33;;;;;18.44;100.00;101190.50;5074475;28;46487;-78
2022/06/26 05:27:59;;;;;;;;;3.67;2.00;;;;;18.45;100.00;101176.22;5067426;28;45540;-77
2022/06/26 05:30:24;;;;;;;;;6.00;3.00;;;;;18.47;100.00;101179.75;5077428;28;45360;-76
2022/06/26 05:32:49;;;;;;;;;7.00;4.00;;;;;18.51;100.00;101176.13;5077553;28;45371;-78
2022/06/26 05:35:15;;;;;;;;;3.00;3.00;;;;;18.53;100.00;101170.72;5077058;28;67801;-76
2022/06/26 05:37:40;;;;;;;;;2.00;2.00;;;;;18.58;100.00;101179.56;5069845;28;60905;-78
2022/06/26 05:40:06;;;;;;;;;2.00;2.00;;;;;18.58;100.00;101183.13;5072959;28;59259;-75
2022/06/26 05:42:31;;;;;;;;;3.00;2.67;;;;;18.61;100.00;101179.53;5067377;28;45454;-75
2022/06/26 05:44:57;;;;;;;;;1.67;1.67;;;;;18.65;100.00;101183.94;5059920;28;59896;-78
2022/06/26 05:47:22;;;;;;;;;3.67;3.67;;;;;18.69;100.00;101188.31;5074466;28;65026;-76
2022/06/26 05:49:47;;;;;;;;;6.00;3.00;;;;;18.73;100.00;101187.38;5057719;28;59763;-78
2022/06/26 05:52:13;;;;;;;;;5.67;3.67;;;;;18.78;100.00;101184.63;5070009;28;45471;-76
2022/06/26 05:54:38;;;;;;;;;8.00;3.67;;;;;18.83;100.00;101185.44;5075133;28;67027;-78
2022/06/26 05:57:04;;;;;;;;;2.00;2.00;;;;;18.87;100.00;101186.28;5073149;28;61298;-75
2022/06/26 05:59:29;;;;;;;;;4.00;3.00;;;;;18.89;100.00;101187.13;5075143;28;45289;-79
2022/06/26 06:01:54;;;;;;;;;3.00;3.00;;;;;18.91;100.00;101188.88;5074050;28;45554;-76
2022/06/26 06:04:20;;;;;;;;;2.00;2.00;;;;;18.93;100.00;101192.38;5060397;22;67793;-76
2022/06/26 06:06:45;;;;;;;;;2.00;2.00;;;;;18.97;100.00;101199.47;5059399;28;45553;-75
2022/06/26 06:09:10;;;;;;;;;3.00;2.00;;;;;18.97;100.00;101194.09;5055116;28;57898;-77
2022/06/26 06:11:36;;;;;;;;;2.00;1.00;;;;;18.99;100.00;101192.28;5056614;28;45269;-76
2022/06/26 06:14:01;;;;;;;;;4.67;3.00;;;;;19.03;100.00;101196.66;5055032;28;56638;-79
2022/06/26 06:16:27;;;;;;;;;3.67;3.00;;;;;19.07;100.00;101205.53;5055434;28;45530;-78
2022/06/26 06:18:52;;;;;;;;;5.33;2.67;;;;;19.11;100.00;101209.91;5056078;28;45372;-76
2022/06/26 06:21:17;;;;;;;;;6.00;3.33;;;;;19.15;100.00;101210.75;5055990;28;45500;-79
2022/06/26 06:23:43;;;;;;;;;3.67;3.00;;;;;19.14;100.00;101212.53;5053335;28;46656;-79
2022/06/26 06:26:09;;;;;;;;;2.33;2.00;;;;;19.18;100.00;101208.91;5055815;28;45328;-76
2022/06/26 06:28:35;;;;;;;;;5.67;2.33;;;;;19.20;100.00;101212.41;5038443;28;45328;-76
2022/06/26 06:31:00;;;;;;;;;1.00;1.00;;;;;19.20;100.00;101207.06;5056136;28;45419;-79
2022/06/26 06:33:26;;;;;;;;;2.67;2.00;;;;;19.21;100.00;101214.19;5052787;28;61330;-76
2022/06/26 06:35:54;;;;;;;;;2.00;2.00;;;;;19.22;100.00;101221.28;5055908;28;45169;-80
2022/06/26 06:38:23;;;;;;;;;3.33;1.33;;;;;19.23;100.00;101225.75;5056010;28;45387;-78
2022/06/26 06:40:48;;;;;;;;;1.33;1.33;;;;;19.25;100.00;101223.03;5056121;28;45520;-76
2022/06/26 06:43:13;;;;;;;;;2.00;2.00;;;;;19.29;100.00;101220.28;5056329;28;46423;-77
2022/06/26 06:45:39;;;;;;;;;3.00;3.00;;;;;19.34;100.00;101228.25;5055181;28;65270;-76
2022/06/26 06:48:05;;;;;;;;;5.00;1.33;;;;;19.38;100.00;101222.75;5054961;28;45362;-76
2022/06/26 06:50:30;;;;;;;;;2.33;1.00;;;;;19.42;100.00;101226.28;5053713;28;45531;-77
2022/06/26 06:52:56;;;;;;;;;6.00;1.33;;;;;19.46;99.34;101224.44;5054586;28;47078;-76
2022/06/26 06:55:22;;;;;;;;;1.00;1.00;;;;;19.45;99.12;101223.56;5055878;28;45210;-76
2022/06/26 06:57:47;;;;;;;;;1.33;1.33;;;;;19.48;99.11;101227.94;5052657;28;45313;-76
2022/06/26 07:00:12;;;;;;;;;1.67;1.00;;;;;19.52;99.28;101229.66;5055632;28;45369;-78
2022/06/26 07:02:38;;;;;;;;;1.00;1.00;;;;;19.53;98.33;101232.31;5054607;28;45591;-76
2022/06/26 07:05:05;;;;;;;;;1.00;1.00;;;;;19.53;97.73;101234.09;5060106;28;45673;-79
2022/06/26 07:07:30;;;;;;;;;1.00;0.67;;;;;19.55;96.63;101230.50;5057401;28;45309;-79
2022/06/26 07:09:56;;;;;;;;;3.33;1.00;;;;;19.56;95.46;101231.38;5053457;28;64703;-76
2022/06/26 07:12:21;;;;;;;;;0.67;0.67;;;;;19.57;95.45;101238.50;5054897;28;70058;-76
2022/06/26 07:14:46;;;;;;;;;3.00;1.00;;;;;19.59;95.11;101253.66;5054483;28;64486;-78
2022/06/26 07:17:13;;;;;;;;;3.00;1.33;;;;;19.62;95.10;101247.34;5055476;28;58753;-80
2022/06/26 07:19:38;;;;;;;;;0.67;0.67;;;;;19.63;94.45;101249.13;5058642;28;45535;-79
2022/06/26 07:22:04;;;;;;;;;0.33;0.33;;;;;19.62;94.07;101252.72;5057698;28;66730;-78
2022/06/26 07:24:29;;;;;;;;;1.00;0.00;;;;;19.64;91.77;101258.91;5041483;28;45644;-75
2022/06/26 07:26:55;;;;;;;;;1.67;0.33;;;;;19.67;94.46;101263.34;5058604;28;45399;-77
2022/06/26 07:29:20;;;;;;;;;1.67;0.33;;;;;19.71;91.26;101271.31;5059188;28;45446;-77
2022/06/26 07:31:46;;;;;;;;;2.67;0.67;;;;;19.76;92.73;101272.09;5050691;28;47214;-77
2022/06/26 07:34:15;;;;;;;;;3.00;0.67;;;;;19.84;92.53;101280.84;5057126;28;60516;-77
2022/06/26 07:36:42;;;;;;;;;3.00;2.00;;;;;19.94;92.97;101275.31;5058279;28;45438;-77
2022/06/26 07:39:09;;;;;;;;;2.67;0.67;;;;;20.02;93.19;101287.63;5057082;28;45618;-78
2022/06/26 07:41:34;;;;;;;;;1.67;1.00;;;;;20.09;91.93;101272.31;5059264;28;46418;-77
2022/06/26 07:44:00;;;;;;;;;2.67;1.00;;;;;20.19;92.21;101275.66;5056503;28;45281;-76
2022/06/26 07:46:25;;;;;;;;;1.00;1.00;;;;;20.24;91.15;101285.41;5038801;28;64087;-76
2022/06/26 07:48:51;;;;;;;;;5.67;0.67;;;;;20.29;90.45;101283.47;5057458;28;45437;-78
2022/06/26 07:51:16;;;;;;;;;1.00;1.00;;;;;20.33;90.48;101286.97;5057736;28;45377;-77
2022/06/26 07:53:42;;;;;;;;;1.00;0.67;;;;;20.36;90.74;101287.78;5056880;28;60659;-75
2022/06/26 07:56:07;;;;;;;;;2.00;1.00;;;;;20.40;90.72;101283.25;5057808;28;45468;-76
2022/06/26 07:58:33;;;;;;;;;1.00;1.00;;;;;20.44;90.89;101273.31;5039981;28;45410;-79
2022/06/26 08:00:58;;;;;;;;;4.00;1.00;;;;;20.50;89.72;101278.56;5057349;28;46208;-77
2022/06/26 08:03:24;;;;;;;;;3.00;1.00;;;;;20.51;89.75;101278.56;5057130;28;50750;-78
2022/06/26 08:05:49;;;;;;;;;1.00;1.00;;;;;20.54;88.71;101274.91;5060796;28;45642;-78
2022/06/26 08:08:15;;;;;;;;;3.00;1.00;;;;;20.56;88.32;101270.38;5057729;28;45284;-75
2022/06/26 08:10:41;;;;;;;;;1.67;1.67;;;;;20.57;87.86;101272.16;5057673;28;46652;-76
2022/06/26 08:13:07;;;;;;;;;2.00;1.00;;;;;20.57;88.37;101267.69;5057502;28;67364;-76
2022/06/26 08:15:33;;;;;;;;;2.00;1.00;;;;;20.56;85.89;101271.28;5054755;28;45296;-74
2022/06/26 08:17:58;;;;;;;;;2.33;1.00;;;;;20.54;85.20;101275.78;5039808;28;45399;-79
2022/06/26 08:20:23;;;;;;;;;1.00;1.00;;;;;20.46;82.95;101274.19;5055550;28;47099;-78
2022/06/26 08:22:49;;;;;;;;;3.33;1.00;;;;;20.39;83.51;101271.63;5057440;28;56666;-76
2022/06/26 08:25:14;;;;;;;;;1.33;0.67;;;;;20.32;82.72;101270.00;5054763;28;46571;-78
2022/06/26 08:27:40;;;;;;;;;2.00;1.00;;;;;20.28;82.09;101270.09;5056552;28;45689;-75
2022/06/26 08:30:06;;;;;;;;;0.67;0.67;;;;;20.26;82.65;101272.81;5053121;28;47368;-75
2022/06/26 08:32:32;;;;;;;;;1.00;1.00;;;;;20.31;83.11;101272.72;5056882;28;45372;-76
2022/06/26 08:34:57;;;;;;;;;4.00;1.67;;;;;20.37;82.05;101270.78;5057948;28;45487;-72
2022/06/26 08:37:22;;;;;;;;;1.00;1.00;;;;;20.40;82.41;101272.53;5056195;28;63263;-74
2022/06/26 08:39:48;;;;;;;;;4.00;1.00;;;;;20.41;81.22;101266.25;5056529;28;61000;-74
2022/06/26 08:42:13;;;;;;;;;2.00;1.00;;;;;20.42;80.84;101265.31;5056250;28;64551;-74
2022/06/26 08:44:42;;;;;;;;;2.33;1.00;;;;;20.40;80.49;101267.16;5055667;28;62915;-74
2022/06/26 08:47:09;;;;;;;;;2.67;1.67;;;;;20.36;80.61;101270.81;5057129;28;45535;-74
2022/06/26 08:49:34;;;;;;;;;1.00;1.00;;;;;20.35;81.12;101277.13;5057160;28;46318;-75
2022/06/26 08:52:00;;;;;;;;;2.33;1.00;;;;;20.34;80.36;101276.19;5056786;28;63459;-76
2022/06/26 08:54:26;;;;;;;;;3.33;1.00;;;;;20.38;81.21;101267.19;5047864;28;52607;-74
2022/06/26 08:56:52;;;;;;;;;1.67;1.67;;;;;20.46;80.80;101274.19;5057382;28;45365;-74
2022/06/26 08:59:18;;;;;;;;;4.33;2.00;;;;;20.58;81.52;101264.06;5055974;28;68880;-74
2022/06/26 09:01:44;;;;;;;;;3.67;1.67;;;;;20.75;80.97;101261.00;5035875;28;45446;-71
2022/06/26 09:04:10;;;;;;;;;2.67;1.00;;;;;20.92;81.50;101256.06;5060454;28;45369;-74
2022/06/26 09:06:37;;;;;;;;;3.33;1.00;;;;;21.08;82.26;101248.50;5054738;28;45544;-72
2022/06/26 09:09:22;;;;;;;;;4.00;2.00;;;;;21.27;80.84;101251.63;5055543;28;47462;-72
2022/06/26 09:11:48;;;;;;;;;1.00;1.00;;;;;21.35;80.69;101246.06;5054992;28;45408;-72
2022/06/26 09:14:14;;;;;;;;;2.33;1.00;;;;;21.42;78.49;101253.94;5056319;28;45564;-74
2022/06/26 09:16:43;;;;;;;;;1.00;1.00;;;;;21.45;77.85;101248.44;5054312;28;45290;-72
2022/06/26 09:19:20;;;;;;;;;2.00;1.00;;;;;21.42;77.18;101240.50;5055743;28;47329;-71
2022/06/26 09:21:47;;;;;;;;;2.00;1.00;;;;;21.42;76.12;101237.81;5055682;28;45352;-74
2022/06/26 09:24:14;;;;;;;;;1.33;1.33;;;;;21.45;75.22;101236.81;5056965;28;45486;-74
2022/06/26 09:26:41;;;;;;;;;1.00;1.00;;;;;21.41;74.67;101238.75;5057081;28;45636;-73
2022/06/26 09:29:18;;;;;;;;;1.00;1.00;;;;;21.39;73.57;101231.63;5055995;28;47332;-73
2022/06/26 09:31:43;;;;;;;;;2.67;2.00;;;;;21.41;74.30;101227.09;5056155;28;45514;-73
2022/06/26 09:34:24;;;;;;;;;2.67;1.00;;;;;21.43;73.34;101231.50;5055877;28;45537;-74
2022/06/26 09:37:01;;;;;;;;;2.00;1.00;;;;;21.44;72.56;101227.00;5053302;28;45667;-74
2022/06/26 09:39:27;;;;;;;;;2.00;2.00;;;;;21.35;70.89;101225.44;5048981;28;46239;-75
2022/06/26 09:41:53;;;;;;;;;0.00;0.00;;;;;21.32;70.64;101233.59;5055399;28;45463;-74
2022/06/26 09:44:19;;;;;;;;;1.67;1.00;;;;;21.28;69.03;101234.56;5055096;28;45989;-73
2022/06/26 09:46:44;;;;;;;;;0.00;0.00;;;;;21.24;68.63;101230.19;5056386;28;45645;-73
2022/06/26 09:49:10;;;;;;;;;0.33;0.33;;;;;21.19;68.58;101226.75;5054626;28;47437;-73
2022/06/26 09:51:36;;;;;;;;;2.00;1.00;;;;;21.22;69.10;101225.81;5055644;28;63711;-73
2022/06/26 09:54:03;;;;;;;;;1.00;1.00;;;;;21.25;69.89;101229.25;5056979;28;45507;-73
2022/06/26 09:56:29;;;;;;;;;2.00;0.00;;;;;21.28;70.26;101223.81;5057020;28;45590;-73
2022/06/26 09:58:57;;;;;;;;;1.00;1.00;;;;;21.30;69.82;101216.63;5034233;28;66248;-72
2022/06/26 10:06:54;;;;;;;;;2.00;1.00;;;;;21.56;71.54;101228.47;5038834;28;46752;-71
2022/06/26 10:09:20;;;;;;;;;1.00;1.00;;;;;21.62;70.74;101222.91;5032731;28;46568;-72
2022/06/26 10:11:45;;;;;;;;;2.00;0.67;;;;;21.68;70.84;101223.66;5017725;28;56854;-72
2022/06/26 10:14:13;;;;;;;;;1.00;1.00;;;;;21.73;68.78;101220.78;5035193;28;45439;-72
2022/06/26 10:17:13;;;;;;;;;3.00;1.00;;;;;21.77;68.41;101219.78;5017612;28;45521;-73
2022/06/26 10:20:00;;;;;;;;;1.00;1.00;;;;;21.86;68.52;101216.84;5017174;28;46538;-72
2022/06/26 10:22:36;;;;;;;;;1.33;1.00;;;;;21.95;67.32;101210.31;5050986;28;45393;-73
2022/06/26 10:25:01;;;;;;;;;1.00;1.00;;;;;22.01;66.85;101209.25;5035737;28;45475;-72
2022/06/26 10:27:32;;;;;;;;;2.33;1.67;;;;;22.04;66.34;101209.13;5038047;28;45435;-72
2022/06/26 10:30:07;;;;;;;;;1.00;1.00;;;;;22.12;66.31;101216.09;5029023;28;46817;-74
2022/06/26 10:32:33;;;;;;;;;1.00;1.00;;;;;22.16;65.85;101219.56;5033435;28;45349;-74
2022/06/26 10:34:58;;;;;;;;;1.00;1.00;;;;;22.19;65.88;101214.97;5034007;28;45429;-73
2022/06/26 10:37:24;;;;;;;;;1.33;0.00;;;;;22.20;63.20;101227.47;5033590;28;45590;-73
2022/06/26 10:39:51;;;;;;;;;2.33;1.00;;;;;22.17;63.49;101215.94;5029608;28;46365;-73
2022/06/26 10:45:07;;;;;;;;;1.00;1.00;;;;;22.09;63.37;101216.13;5024949;28;45500;-73
2022/06/26 10:47:53;;;;;;;;;1.33;1.00;;;;;22.14;63.47;101216.03;5031988;28;45684;-73
2022/06/26 10:50:29;;;;;;;;;1.00;1.00;;;;;22.15;62.81;101215.09;5031548;28;45748;-73
2022/06/26 10:53:14;;;;;;;;;1.67;1.00;;;;;22.16;62.92;101222.28;5017661;28;45466;-73
2022/06/26 10:55:51;;;;;;;;;6.00;2.00;;;;;22.19;62.18;101220.34;5020363;28;45349;-73
2022/06/26 10:58:19;;;;;;;;;2.67;1.00;;;;;22.26;60.68;101222.84;5037151;28;45510;-73
2022/06/26 11:00:45;;;;;;;;;2.33;1.00;;;;;22.30;60.35;101214.63;5037847;28;47455;-73
2022/06/26 11:03:17;;;;;;;;;1.33;0.33;;;;;22.38;59.37;101211.72;5033314;28;46503;-73
2022/06/26 11:06:03;;;;;;;;;1.00;1.00;;;;;22.49;60.34;101213.13;5052303;28;45457;-74
2022/06/26 11:08:36;;;;;;;;;2.67;1.00;;;;;22.58;60.52;101211.91;5052841;28;46711;-73
2022/06/26 11:11:03;;;;;;;;;1.00;1.00;;;;;22.69;61.44;101203.50;5057908;28;45498;-72
2022/06/26 11:13:28;;;;;;;;;1.00;1.00;;;;;22.79;60.86;101202.25;5058246;28;45600;-73
2022/06/26 11:15:54;;;;;;;;;1.67;1.67;;;;;22.91;60.27;101193.81;5053408;28;45498;-73
2022/06/26 11:18:19;;;;;;;;;2.33;2.00;;;;;23.03;59.76;101202.41;5058560;28;45463;-72
2022/06/26 11:20:50;;;;;;;;;1.00;1.00;;;;;23.12;59.71;101202.09;5053535;28;56883;-72
2022/06/26 11:23:20;;;;;;;;;4.00;2.00;;;;;23.17;59.86;101205.47;5054131;28;45754;-71
2022/06/26 11:25:52;;;;;;;;;1.00;0.00;;;;;23.24;59.67;101193.56;5055192;28;45482;-72
2022/06/26 11:28:18;;;;;;;;;1.00;1.00;;;;;23.33;60.15;101195.03;5058608;28;45514;-72